This is the latest recevied weather packets stored in our database for station/object IV3CVE-H1. If no packets are shown the sender has not sent any weather packets the latest 10 day(s).
| Time | Temp. | Humidity | Pressure | Rain* | Wind** | Luminosity | Snow |
|---|---|---|---|---|---|---|---|
| 1777330517 | 13.33° C | 82% | 1014.6 hPa | 0 mm | - | - | - |
| 1777329316 | 13.89° C | 81% | 1014.5 hPa | 0 mm | - | - | - |
| 1777324537 | 13.89° C | 81% | 1014.5 hPa | 0 mm | - | - | - |
| 1777322717 | 14.44° C | 77% | 1014.6 hPa | 0 mm | - | - | - |
| 1777320316 | 15.56° C | 74% | 1014.4 hPa | 0 mm | - | - | - |
| 1777318556 | 16.67° C | 68% | 1014.3 hPa | 0 mm | - | - | - |
| 1777317318 | 17.22° C | 67% | 1014.2 hPa | 0 mm | - | - | - |
| 1777314317 | 19.44° C | 58% | 1013.7 hPa | 0 mm | - | - | - |
| 1777313736 | 20° C | 57% | 1013.7 hPa | 0 mm | - | - | - |
| 1777310738 | 22.22° C | 46% | 1013.5 hPa | 0 mm | - | - | - |
| 1777306537 | 25° C | 39% | 1013.6 hPa | 0 mm | - | - | - |
| 1777304116 | 25.56° C | 39% | 1013.8 hPa | 0 mm | - | - | - |
| 1777298137 | 25.56° C | 40% | 1014.5 hPa | 0 mm | - | - | - |
| 1777287316 | 23.89° C | 37% | 1016.2 hPa | 0 mm | - | - | - |
| 1777286716 | 23.89° C | 37% | 1016.3 hPa | 0 mm | - | - | - |
| 1777284917 | 23.89° C | 38% | 1016.4 hPa | 0 mm | - | - | - |
| 1777283717 | 23.33° C | 39% | 1016.5 hPa | 0 mm | - | - | - |
| 1777283117 | 22.78° C | 38% | 1016.7 hPa | 0 mm | - | - | - |
| 1777282517 | 22.78° C | 39% | 1016.8 hPa | 0 mm | - | - | - |
| 1777277737 | 20.56° C | 42% | 1017.2 hPa | 0 mm | - | - | - |
| 1777275318 | 19.44° C | 43% | 1017.1 hPa | 0 mm | - | - | - |
| 1777274738 | 19.44° C | 44% | 1017.2 hPa | 0 mm | - | - | - |
| 1777271716 | 17.78° C | 56% | 1017.3 hPa | 0 mm | - | - | - |
| 1777269318 | 15° C | 61% | 1017.3 hPa | 0 mm | - | - | - |
| 1777266317 | 15° C | 53% | 1017.1 hPa | 0 mm | - | - | - |
* Rain latest hour (hover to see other rain measurements)
** Current wind speed in m/s (hover to see current wind gust speed)